Time;durP1;ratioP1;P1;durP2;ratioP2;P2;SDS_P1;SDS_P2;PMS_P1;PMS_P2;Temp;Humidity;BMP_temperature;BMP_pressure;BME280_temperature;BME280_humidity;BME280_pressure;Samples;Min_cycle;Max_cycle;Signal;HPM_P1;HPM_P2
2021/12/16 00:03:38;;;;;;;12.23;7.22;;;3.40;99.90;;;;;;5291050;28;20378;-78
2021/12/16 00:09:00;;;;;;;12.68;7.00;;;3.50;99.90;;;;;;5290903;28;20038;-76
2021/12/16 00:33:36;;;;;;;5.88;4.25;;;3.20;99.90;;;;;;5290627;28;20073;-77
2021/12/16 00:36:09;;;;;;;4.63;2.90;;;3.40;99.90;;;;;;5290408;28;20416;-77
2021/12/16 00:38:42;;;;;;;6.38;3.35;;;3.40;99.90;;;;;;5290416;28;20080;-78
2021/12/16 00:41:13;;;;;;;6.90;3.75;;;3.40;99.90;;;;;;5290296;28;20031;-77
2021/12/16 00:43:53;;;;;;;6.32;3.50;;;3.40;99.90;;;;;;5290107;28;20077;-78
2021/12/16 00:46:55;;;;;;;4.70;2.58;;;3.40;99.90;;;;;;5290323;28;20035;-77
2021/12/16 00:54:46;;;;;;;5.82;3.40;;;3.30;99.90;;;;;;5290659;28;20482;-77
2021/12/16 00:57:17;;;;;;;10.07;5.55;;;3.20;99.90;;;;;;5290121;28;20051;-76
2021/12/16 00:59:50;;;;;;;7.05;4.00;;;3.30;99.90;;;;;;5290097;28;20063;-77
2021/12/16 01:52:48;;;;;;;5.05;2.55;;;2.80;99.90;;;;;;5273189;28;20031;-76
2021/12/16 01:55:30;;;;;;;4.32;2.40;;;2.80;99.90;;;;;;5290019;28;20036;-76
2021/12/16 01:58:14;;;;;;;4.60;2.00;;;2.90;99.90;;;;;;5292353;28;20107;-78
2021/12/16 02:03:51;;;;;;;3.67;2.15;;;2.80;99.90;;;;;;5293515;28;20028;-78
2021/12/16 02:07:00;;;;;;;4.13;2.20;;;3.00;99.90;;;;;;5293338;28;20031;-77
2021/12/16 02:09:42;;;;;;;3.38;2.03;;;2.80;99.90;;;;;;5293238;28;20032;-78
2021/12/16 02:12:46;;;;;;;3.33;2.08;;;2.90;99.90;;;;;;5293422;28;20043;-77
2021/12/16 02:29:30;;;;;;;10.07;3.15;;;3.40;99.90;;;;;;5292931;28;20038;-76
2021/12/16 02:32:10;;;;;;;6.22;2.55;;;3.30;99.90;;;;;;5292787;28;20028;-77
2021/12/16 02:37:31;;;;;;;5.30;2.97;;;3.40;99.90;;;;;;5292840;28;20444;-77
2021/12/16 02:40:06;;;;;;;8.02;3.00;;;3.50;99.90;;;;;;5292678;28;20031;-78
2021/12/16 02:42:51;;;;;;;8.63;3.88;;;3.40;99.90;;;;;;5292746;28;20026;-76
2021/12/16 02:48:30;;;;;;;5.82;3.60;;;3.40;99.90;;;;;;5292664;28;20370;-78
2021/12/16 02:51:09;;;;;;;6.05;2.95;;;3.40;99.90;;;;;;5292575;28;20386;-77
2021/12/16 02:53:44;;;;;;;3.45;2.40;;;3.50;99.90;;;;;;5292729;28;20566;-76
2021/12/16 02:56:15;;;;;;;4.75;3.22;;;3.50;99.90;;;;;;5292439;28;20110;-78
2021/12/16 02:58:50;;;;;;;8.40;3.95;;;3.50;99.90;;;;;;5292310;28;20032;-77
2021/12/16 03:01:33;;;;;;;7.03;3.25;;;3.30;99.90;;;;;;5292303;28;20107;-76
2021/12/16 03:04:07;;;;;;;4.88;2.85;;;3.50;99.90;;;;;;5292124;27;20397;-77
2021/12/16 03:06:42;;;;;;;5.55;3.20;;;3.40;99.90;;;;;;5292212;28;20045;-77
2021/12/16 03:09:18;;;;;;;5.57;3.30;;;3.50;99.90;;;;;;5292164;28;20046;-77
2021/12/16 03:14:48;;;;;;;7.47;3.38;;;3.30;99.90;;;;;;5292197;28;20593;-77
2021/12/16 03:17:38;;;;;;;7.50;4.32;;;3.40;99.90;;;;;;5290999;28;20047;-76
2021/12/16 03:20:18;;;;;;;8.48;3.78;;;3.40;99.90;;;;;;5291544;28;20189;-77
2021/12/16 03:31:03;;;;;;;8.00;4.15;;;3.30;99.90;;;;;;5291606;28;20036;-78
2021/12/16 03:33:55;;;;;;;8.10;4.65;;;3.40;99.90;;;;;;5291739;28;20458;-77
2021/12/16 03:36:31;;;;;;;7.18;4.03;;;3.40;99.90;;;;;;5291832;28;20375;-77
2021/12/16 03:39:08;;;;;;;6.25;3.92;;;3.30;99.90;;;;;;5291539;28;20028;-76
2021/12/16 03:41:39;;;;;;;4.80;2.97;;;3.30;99.90;;;;;;5291489;28;20030;-76
2021/12/16 03:44:14;;;;;;;4.97;3.15;;;3.40;99.90;;;;;;5291479;28;20024;-77
2021/12/16 03:46:49;;;;;;;3.33;2.58;;;3.40;99.90;;;;;;5291365;28;20023;-77
2021/12/16 03:49:25;;;;;;;3.03;1.95;;;3.40;99.90;;;;;;5291040;28;20046;-77
2021/12/16 03:52:06;;;;;;;3.58;2.15;;;3.20;99.90;;;;;;5291310;28;20428;-77
2021/12/16 03:54:42;;;;;;;3.83;2.67;;;3.30;99.90;;;;;;5291308;28;20062;-76
2021/12/16 03:57:13;;;;;;;5.03;3.40;;;3.40;99.90;;;;;;5291262;28;20131;-78
2021/12/16 03:59:45;;;;;;;4.38;2.88;;;3.40;99.90;;;;;;5291082;28;20030;-77
2021/12/16 04:02:29;;;;;;;7.43;3.25;;;3.30;99.90;;;;;;5291060;28;20023;-76
2021/12/16 04:05:01;;;;;;;5.80;3.28;;;3.40;99.90;;;;;;5289740;28;20054;-76
2021/12/16 04:07:34;;;;;;;3.95;2.85;;;3.30;99.90;;;;;;5289617;28;20020;-77
2021/12/16 04:10:11;;;;;;;3.35;2.60;;;3.20;99.90;;;;;;5290731;28;20042;-76
2021/12/16 04:12:42;;;;;;;4.78;3.38;;;3.20;99.90;;;;;;5289677;28;20546;-78
2021/12/16 04:15:13;;;;;;;4.35;3.03;;;3.20;99.90;;;;;;5290797;28;20028;-77
2021/12/16 04:17:46;;;;;;;6.65;4.50;;;3.20;99.90;;;;;;5289107;28;20023;-76
2021/12/16 04:20:17;;;;;;;8.65;4.30;;;3.30;99.90;;;;;;5290062;28;20058;-76
2021/12/16 04:22:49;;;;;;;8.25;4.90;;;3.40;99.90;;;;;;5290769;28;20551;-78
2021/12/16 04:25:24;;;;;;;8.40;4.40;;;3.40;99.90;;;;;;5290608;28;20475;-76
2021/12/16 04:27:58;;;;;;;6.57;4.65;;;3.40;99.90;;;;;;5290590;28;20451;-76
2021/12/16 04:30:31;;;;;;;7.70;4.57;;;3.30;99.90;;;;;;5290345;28;20542;-79
2021/12/16 04:33:02;;;;;;;7.57;5.30;;;3.20;99.90;;;;;;5290456;28;20020;-78
2021/12/16 04:35:34;;;;;;;6.25;4.38;;;3.30;99.90;;;;;;5290395;28;20035;-78
2021/12/16 04:38:08;;;;;;;9.68;4.28;;;3.20;99.90;;;;;;5290379;28;20030;-77
2021/12/16 04:40:40;;;;;;;5.30;3.83;;;3.00;99.90;;;;;;5290238;28;20027;-78
2021/12/16 04:43:18;;;;;;;5.70;3.55;;;3.20;99.90;;;;;;5290465;28;20027;-77
2021/12/16 04:45:50;;;;;;;6.68;4.00;;;3.10;99.90;;;;;;5289061;28;20359;-77
2021/12/16 04:48:21;;;;;;;7.13;4.93;;;3.10;99.90;;;;;;5288744;28;20478;-78
2021/12/16 04:50:52;;;;;;;7.15;4.78;;;3.00;99.90;;;;;;5288905;28;20043;-77
2021/12/16 04:53:23;;;;;;;6.15;4.25;;;3.10;99.90;;;;;;5290243;28;20020;-77
2021/12/16 04:55:54;;;;;;;4.57;3.15;;;3.10;99.90;;;;;;5290413;28;20029;-78
2021/12/16 04:58:27;;;;;;;4.32;3.20;;;2.80;99.90;;;;;;5290096;28;20028;-78
2021/12/16 05:00:58;;;;;;;48.55;21.75;;;2.80;99.90;;;;;;5290095;28;20466;-77
2021/12/16 05:03:29;;;;;;;5.47;4.15;;;2.80;99.90;;;;;;5290064;28;20027;-76
2021/12/16 05:06:00;;;;;;;5.80;3.92;;;2.70;99.90;;;;;;5290038;28;20034;-77
2021/12/16 05:08:32;;;;;;;5.15;4.00;;;2.70;99.90;;;;;;5289973;28;20123;-77
2021/12/16 05:11:05;;;;;;;6.45;4.60;;;2.80;99.90;;;;;;5289926;28;20102;-78
2021/12/16 05:13:36;;;;;;;13.75;8.60;;;2.70;99.90;;;;;;5290004;28;20134;-78
2021/12/16 05:16:07;;;;;;;8.45;5.90;;;2.60;99.90;;;;;;5288809;28;20020;-76
2021/12/16 05:18:39;;;;;;;7.25;5.15;;;2.60;99.90;;;;;;5288364;28;20035;-78
2021/12/16 05:21:26;;;;;;;7.00;4.85;;;2.40;99.90;;;;;;5288332;28;20117;-78
2021/12/16 05:26:46;;;;;;;1.77;1.50;;;2.50;99.90;;;;;;5290223;28;20509;-77
2021/12/16 05:29:17;;;;;;;12.85;7.00;;;2.50;99.90;;;;;;5289636;28;20035;-76
2021/12/16 05:31:48;;;;;;;6.68;3.28;;;2.30;99.90;;;;;;5292809;28;20028;-77
2021/12/16 05:34:20;;;;;;;12.18;6.07;;;2.30;99.90;;;;;;5294147;28;20050;-78
2021/12/16 05:36:51;;;;;;;1.85;1.23;;;2.20;99.90;;;;;;5294010;28;20493;-77
2021/12/16 05:39:23;;;;;;;1.95;1.17;;;2.30;99.90;;;;;;5293834;28;20028;-77
2021/12/16 05:41:54;;;;;;;3.38;1.98;;;2.30;99.90;;;;;;5293974;28;20034;-79
2021/12/16 05:44:25;;;;;;;10.10;5.35;;;2.10;99.90;;;;;;5293791;28;20027;-77
2021/12/16 05:47:02;;;;;;;2.38;1.42;;;2.10;99.90;;;;;;5293716;28;20024;-77
2021/12/16 05:49:33;;;;;;;26.63;12.55;;;2.00;99.90;;;;;;5293375;28;20126;-77
2021/12/16 05:52:04;;;;;;;3.13;1.83;;;2.10;99.90;;;;;;5293690;28;20613;-78
2021/12/16 05:54:35;;;;;;;2.28;1.35;;;2.10;99.90;;;;;;5292318;28;20092;-77
2021/12/16 05:57:06;;;;;;;28.27;14.32;;;2.20;99.90;;;;;;5292322;28;20027;-78
2021/12/16 05:59:37;;;;;;;6.05;3.25;;;1.90;99.90;;;;;;5293447;28;20118;-78
2021/12/16 06:02:08;;;;;;;4.60;1.75;;;2.00;99.90;;;;;;5293475;28;20152;-76
2021/12/16 06:04:39;;;;;;;2.13;1.23;;;2.10;99.90;;;;;;5293550;28;20030;-77
2021/12/16 06:07:10;;;;;;;2.33;1.52;;;2.10;99.90;;;;;;5293424;28;20020;-78
2021/12/16 06:09:41;;;;;;;12.07;8.27;;;1.80;99.90;;;;;;5291888;28;20034;-77
2021/12/16 06:12:12;;;;;;;30.08;13.52;;;2.10;99.90;;;;;;5293314;28;20024;-77
2021/12/16 06:28:35;;;;;;;;;;;1.60;99.90;;;;;;5293055;28;20028;-78
2021/12/16 06:31:06;;;;;;;4.35;2.38;;;1.70;99.90;;;;;;5291567;28;19995;-77
2021/12/16 06:33:37;;;;;;;2.45;1.80;;;1.60;99.90;;;;;;5291991;28;20098;-79
2021/12/16 06:36:08;;;;;;;12.63;7.85;;;1.60;99.90;;;;;;5293225;28;20016;-79
2021/12/16 06:38:39;;;;;;;3.38;2.78;;;1.80;99.90;;;;;;5293178;28;20020;-79
2021/12/16 06:41:10;;;;;;;3.40;1.85;;;1.70;99.90;;;;;;5293006;28;20034;-77
2021/12/16 06:43:41;;;;;;;1.75;1.25;;;1.70;99.90;;;;;;5293118;28;20051;-76
2021/12/16 06:46:16;;;;;;;1.85;1.45;;;1.70;99.90;;;;;;5292068;28;20028;-78
2021/12/16 06:48:55;;;;;;;7.60;4.25;;;1.40;99.90;;;;;;5292641;28;20406;-78
2021/12/16 06:51:38;;;;;;;5.25;3.03;;;1.50;99.90;;;;;;5293007;28;20097;-76
2021/12/16 06:54:14;;;;;;;3.97;1.90;;;1.70;99.90;;;;;;5291720;28;20030;-78
2021/12/16 06:57:03;;;;;;;1.88;1.42;;;1.80;99.90;;;;;;5293159;28;20047;-77
2021/12/16 06:59:39;;;;;;;3.42;2.40;;;1.80;99.90;;;;;;5292699;28;20102;-77
2021/12/16 07:02:39;;;;;;;1.98;1.55;;;1.70;99.90;;;;;;5292979;28;20047;-77
2021/12/16 07:05:05;;;;;;;2.78;2.08;;;1.60;99.90;;;;;;5292518;28;20535;-79
2021/12/16 07:07:37;;;;;;;2.22;1.88;;;1.80;99.90;;;;;;5292695;28;20027;-77
2021/12/16 07:10:10;;;;;;;2.63;2.10;;;1.80;99.90;;;;;;5292466;28;20031;-79
2021/12/16 07:12:47;;;;;;;2.85;2.28;;;1.90;99.90;;;;;;5292463;28;20478;-77
2021/12/16 07:15:26;;;;;;;3.80;2.00;;;1.90;99.90;;;;;;5292830;28;20397;-79
2021/12/16 07:17:57;;;;;;;3.72;2.83;;;1.90;99.90;;;;;;5292197;28;20157;-79
2021/12/16 07:20:32;;;;;;;2.15;1.80;;;2.00;99.90;;;;;;5292151;28;20052;-76
2021/12/16 07:23:06;;;;;;;4.05;2.42;;;2.00;99.90;;;;;;5292261;28;20026;-79
2021/12/16 07:25:37;;;;;;;34.85;19.98;;;2.00;99.90;;;;;;5292426;28;20027;-78
2021/12/16 07:28:09;;;;;;;21.67;12.90;;;2.20;99.90;;;;;;5292164;28;20020;-77
2021/12/16 07:30:44;;;;;;;3.60;2.25;;;2.20;99.90;;;;;;5291974;28;20478;-78
2021/12/16 07:33:16;;;;;;;16.17;9.30;;;2.30;99.90;;;;;;5292013;28;20115;-78
2021/12/16 07:35:48;;;;;;;8.70;5.15;;;2.50;99.90;;;;;;5292053;28;20111;-78
2021/12/16 07:38:19;;;;;;;2.50;1.65;;;2.50;99.90;;;;;;5291763;28;20020;-76
2021/12/16 07:40:52;;;;;;;9.43;5.63;;;2.40;99.90;;;;;;5292068;27;20374;-78
2021/12/16 07:43:43;;;;;;;7.65;4.45;;;2.20;99.90;;;;;;5291850;28;20478;-76
2021/12/16 07:46:14;;;;;;;3.33;2.15;;;2.20;99.90;;;;;;5291922;28;20027;-79
2021/12/16 07:48:45;;;;;;;2.50;1.75;;;2.30;99.90;;;;;;5291629;28;20092;-76
2021/12/16 07:51:16;;;;;;;3.13;2.63;;;2.00;99.90;;;;;;5291704;28;20085;-79
2021/12/16 07:53:49;;;;;;;2.55;1.88;;;2.30;99.90;;;;;;5289411;28;20038;-77
2021/12/16 07:56:19;;;;;;;3.65;3.25;;;2.40;99.90;;;;;;5291175;28;20424;-80
2021/12/16 07:58:50;;;;;;;27.65;11.18;;;2.50;99.90;;;;;;5290133;28;20020;-79
2021/12/16 08:01:22;;;;;;;44.75;21.77;;;2.70;99.90;;;;;;5291625;28;20344;-77
2021/12/16 08:03:55;;;;;;;23.30;9.48;;;2.80;99.90;;;;;;5291368;28;20032;-78
2021/12/16 08:06:28;;;;;;;19.63;10.30;;;2.90;99.90;;;;;;5290062;28;20024;-78
2021/12/16 08:09:05;;;;;;;15.68;9.60;;;2.80;99.90;;;;;;5291291;28;20059;-75
2021/12/16 08:11:40;;;;;;;5.05;3.08;;;3.00;99.90;;;;;;5291281;28;20031;-77
2021/12/16 08:14:11;;;;;;;6.43;3.55;;;3.10;99.90;;;;;;5291373;28;20035;-77
2021/12/16 08:16:42;;;;;;;6.10;2.40;;;3.20;99.90;;;;;;5291272;28;20071;-77
2021/12/16 08:19:13;;;;;;;6.28;2.60;;;2.90;99.90;;;;;;5290910;28;20052;-77
2021/12/16 08:21:44;;;;;;;2.17;1.70;;;3.10;99.90;;;;;;5290073;28;20057;-77
2021/12/16 08:24:16;;;;;;;1.75;1.30;;;3.20;99.90;;;;;;5281064;28;20115;-79
2021/12/16 08:26:49;;;;;;;2.17;1.52;;;3.00;99.90;;;;;;5268846;28;20025;-76
2021/12/16 08:29:21;;;;;;;3.75;1.52;;;2.90;99.90;;;;;;5272238;28;20031;-76
2021/12/16 08:31:53;;;;;;;3.78;2.33;;;3.00;99.90;;;;;;5281826;28;20028;-79
2021/12/16 08:34:25;;;;;;;9.60;5.63;;;3.00;99.90;;;;;;5286555;28;20480;-80
2021/12/16 08:36:56;;;;;;;1.02;0.90;;;3.10;99.90;;;;;;5277235;28;20165;-78
2021/12/16 08:39:27;;;;;;;1.80;1.17;;;2.90;99.90;;;;;;5288533;28;20477;-79
2021/12/16 08:41:59;;;;;;;1.60;1.10;;;2.90;99.90;;;;;;5280698;28;20467;-79
2021/12/16 08:44:31;;;;;;;1.75;1.35;;;3.10;99.90;;;;;;5269407;28;20588;-79
2021/12/16 08:47:09;;;;;;;4.97;3.08;;;3.10;99.90;;;;;;5281138;28;20028;-79
2021/12/16 08:49:41;;;;;;;2.53;1.63;;;3.00;99.90;;;;;;5268890;28;20047;-77
2021/12/16 08:52:17;;;;;;;3.45;2.55;;;3.10;99.90;;;;;;5270371;28;20024;-78
2021/12/16 08:54:49;;;;;;;3.75;2.30;;;3.10;99.90;;;;;;5269525;28;20056;-77
2021/12/16 08:57:20;;;;;;;3.00;1.83;;;3.20;99.90;;;;;;5269540;28;20157;-78
2021/12/16 08:59:51;;;;;;;2.70;2.03;;;3.20;99.90;;;;;;5269323;28;20103;-80
2021/12/16 09:02:23;;;;;;;2.08;1.60;;;3.30;99.90;;;;;;5269056;28;20360;-80
2021/12/16 09:04:53;;;;;;;2.20;1.60;;;3.50;99.90;;;;;;5268976;28;20031;-80
2021/12/16 09:07:24;;;;;;;1.40;1.20;;;3.50;99.90;;;;;;5269200;28;20020;-79
2021/12/16 09:09:58;;;;;;;7.95;3.28;;;3.50;99.90;;;;;;5267627;28;20032;-80
2021/12/16 09:15:05;;;;;;;1.60;1.08;;;3.40;99.90;;;;;;5268711;28;20375;-80
2021/12/16 09:17:37;;;;;;;2.03;1.70;;;3.50;99.90;;;;;;5268683;28;20367;-80
2021/12/16 09:20:09;;;;;;;5.07;3.58;;;3.50;99.90;;;;;;5268288;28;20056;-79
2021/12/16 09:22:40;;;;;;;4.38;2.47;;;3.50;99.90;;;;;;5268952;28;20092;-80
2021/12/16 09:25:12;;;;;;;2.40;1.92;;;3.60;99.90;;;;;;5268879;28;20034;-79
2021/12/16 09:27:43;;;;;;;12.18;5.43;;;3.60;99.90;;;;;;5268933;28;20029;-78
2021/12/16 09:30:17;;;;;;;2.92;1.65;;;3.60;99.90;;;;;;5268806;28;20040;-77
2021/12/16 09:32:51;;;;;;;14.02;7.80;;;3.60;99.90;;;;;;5268778;28;20077;-79
2021/12/16 09:35:23;;;;;;;3.80;1.88;;;3.40;99.90;;;;;;5267636;28;20024;-79
2021/12/16 09:37:55;;;;;;;9.30;4.65;;;3.50;99.90;;;;;;5268765;28;20031;-77
2021/12/16 09:40:28;;;;;;;8.75;4.45;;;3.40;99.90;;;;;;5268967;28;20478;-77
2021/12/16 09:42:59;;;;;;;59.05;39.08;;;3.50;99.90;;;;;;5268751;28;20016;-76
2021/12/16 09:45:33;;;;;;;17.38;9.93;;;3.40;99.90;;;;;;5268925;28;20031;-75
2021/12/16 09:48:05;;;;;;;13.25;8.63;;;3.40;99.90;;;;;;5267384;28;20032;-76
2021/12/16 09:50:36;;;;;;;7.20;4.30;;;3.50;99.90;;;;;;5268312;28;20115;-79
2021/12/16 09:53:09;;;;;;;4.97;2.65;;;3.50;99.90;;;;;;5268502;28;20124;-79
2021/12/16 09:55:43;;;;;;;3.63;1.15;;;3.50;99.90;;;;;;5272134;28;20041;-80
2021/12/16 09:58:14;;;;;;;1.95;1.17;;;3.40;99.90;;;;;;5278959;28;20020;-75
2021/12/16 10:00:45;;;;;;;5.13;1.65;;;3.70;99.90;;;;;;5274844;28;20479;-77
2021/12/16 10:03:16;;;;;;;2.17;1.05;;;3.60;99.90;;;;;;5276438;28;20050;-77
2021/12/16 10:05:48;;;;;;;1.30;0.80;;;3.40;99.90;;;;;;5273989;28;20028;-76
2021/12/16 10:08:19;;;;;;;1.65;1.13;;;3.60;99.90;;;;;;5277879;28;20386;-76
2021/12/16 10:10:50;;;;;;;1.63;0.85;;;3.60;99.90;;;;;;5289788;28;20035;-76
2021/12/16 10:13:31;;;;;;;2.63;1.60;;;3.60;99.90;;;;;;5275700;28;20082;-75
2021/12/16 10:18:35;;;;;;;4.63;2.25;;;3.80;99.90;;;;;;5278449;28;20088;-79
2021/12/16 10:21:08;;;;;;;2.85;1.75;;;3.70;99.90;;;;;;5292221;28;20096;-77
2021/12/16 10:23:42;;;;;;;2.40;1.42;;;3.90;99.90;;;;;;5283818;28;20050;-78
2021/12/16 10:26:21;;;;;;;2.47;1.00;;;3.80;99.90;;;;;;5272439;28;20490;-75
2021/12/16 10:28:56;;;;;;;1.70;1.20;;;3.80;99.90;;;;;;5272532;28;20504;-76
2021/12/16 10:31:35;;;;;;;2.95;1.60;;;3.80;99.90;;;;;;5280990;28;20035;-77
2021/12/16 10:34:09;;;;;;;2.65;1.30;;;4.00;99.90;;;;;;5282181;28;20023;-76
2021/12/16 10:36:45;;;;;;;10.52;5.85;;;4.00;99.90;;;;;;5272908;28;20471;-77
2021/12/16 10:39:21;;;;;;;6.85;4.70;;;3.90;99.90;;;;;;5273649;28;20032;-76
2021/12/16 10:42:04;;;;;;;6.10;2.72;;;4.00;99.90;;;;;;5271281;28;20016;-76
2021/12/16 10:44:37;;;;;;;14.65;9.50;;;3.90;99.90;;;;;;5271528;28;20575;-76
2021/12/16 10:47:13;;;;;;;6.38;4.15;;;3.90;99.90;;;;;;5271668;28;20073;-75
2021/12/16 10:49:52;;;;;;;4.40;3.13;;;3.90;99.90;;;;;;5271170;28;20391;-75
2021/12/16 10:52:31;;;;;;;3.97;2.55;;;3.80;99.90;;;;;;5271221;28;20043;-78
2021/12/16 10:55:03;;;;;;;5.40;3.80;;;3.90;99.90;;;;;;5270237;28;20050;-77
2021/12/16 10:57:34;;;;;;;6.43;3.45;;;3.90;99.90;;;;;;5270103;28;20110;-77
2021/12/16 11:00:11;;;;;;;5.97;3.67;;;4.00;99.90;;;;;;5269621;28;20134;-79
2021/12/16 11:02:42;;;;;;;4.70;3.10;;;4.00;99.90;;;;;;5271271;28;20475;-77
2021/12/16 11:05:17;;;;;;;7.40;4.60;;;4.00;99.90;;;;;;5271325;28;20487;-76
2021/12/16 11:07:54;;;;;;;6.47;4.13;;;3.90;99.90;;;;;;5271188;28;20099;-76
2021/12/16 11:10:35;;;;;;;8.60;4.15;;;3.80;99.90;;;;;;5269597;28;20399;-79
2021/12/16 11:13:10;;;;;;;8.40;5.10;;;3.70;99.90;;;;;;5271133;28;20055;-77
2021/12/16 11:15:44;;;;;;;8.95;5.53;;;3.90;99.90;;;;;;5270977;28;20028;-77
2021/12/16 11:18:21;;;;;;;11.50;7.40;;;3.90;99.90;;;;;;5270733;28;20027;-78
2021/12/16 11:21:05;;;;;;;7.18;4.63;;;3.90;99.90;;;;;;5269421;28;20040;-77
2021/12/16 11:23:40;;;;;;;5.80;3.65;;;3.80;99.90;;;;;;5269619;28;20032;-78
2021/12/16 11:26:16;;;;;;;5.85;3.35;;;3.80;99.90;;;;;;5269491;28;20426;-77
2021/12/16 11:28:49;;;;;;;4.55;2.83;;;4.00;99.90;;;;;;5270635;28;20379;-78
2021/12/16 11:31:27;;;;;;;4.43;2.78;;;3.90;99.90;;;;;;5270581;28;20467;-76
2021/12/16 11:34:00;;;;;;;4.07;2.60;;;4.00;99.90;;;;;;5270755;28;20024;-79
2021/12/16 11:36:45;;;;;;;5.82;3.13;;;3.90;99.90;;;;;;5270678;28;20057;-77
2021/12/16 11:39:24;;;;;;;5.22;3.42;;;4.00;99.90;;;;;;5270457;28;20053;-76
2021/12/16 11:42:01;;;;;;;7.22;3.53;;;3.90;99.90;;;;;;5270564;28;20024;-78
2021/12/16 11:44:40;;;;;;;3.45;2.38;;;4.00;99.90;;;;;;5270381;28;20111;-76
2021/12/16 11:47:17;;;;;;;3.92;2.70;;;4.00;99.90;;;;;;5269033;28;20046;-76
2021/12/16 11:49:53;;;;;;;6.00;3.85;;;3.90;99.90;;;;;;5269905;28;20079;-77
2021/12/16 11:52:29;;;;;;;11.63;6.47;;;4.10;99.90;;;;;;5268988;28;20020;-79
2021/12/16 11:55:13;;;;;;;6.95;3.70;;;4.00;99.90;;;;;;5270376;28;20016;-76
2021/12/16 11:57:50;;;;;;;5.75;3.92;;;3.90;99.90;;;;;;5270332;28;20073;-76
2021/12/16 12:00:40;;;;;;;10.60;5.93;;;3.90;99.90;;;;;;5270131;28;20431;-76
2021/12/16 12:03:14;;;;;;;8.27;4.70;;;4.10;99.90;;;;;;5270139;28;20028;-76
2021/12/16 12:05:47;;;;;;;4.95;2.90;;;4.20;99.90;;;;;;5270125;28;20020;-75
2021/12/16 12:08:26;;;;;;;4.82;3.45;;;4.00;99.90;;;;;;5269868;28;20024;-75
2021/12/16 12:11:06;;;;;;;9.15;5.00;;;4.00;99.90;;;;;;5269740;28;20032;-78
2021/12/16 12:13:40;;;;;;;3.83;1.70;;;4.10;99.90;;;;;;5269924;28;20413;-78
2021/12/16 12:16:35;;;;;;;5.28;2.80;;;4.10;99.90;;;;;;5269780;28;20036;-79
2021/12/16 12:19:23;;;;;;;2.22;1.70;;;4.10;99.90;;;;;;5267786;28;20044;-79
2021/12/16 12:22:00;;;;;;;4.25;1.50;;;4.30;99.90;;;;;;5269742;28;20020;-80
2021/12/16 12:24:34;;;;;;;4.47;1.55;;;4.20;99.90;;;;;;5269840;28;20024;-76
2021/12/16 12:27:10;;;;;;;2.75;1.73;;;4.10;99.90;;;;;;5269586;28;20069;-79
2021/12/16 12:29:54;;;;;;;2.67;1.83;;;4.10;99.90;;;;;;5269507;28;20032;-78
2021/12/16 12:32:32;;;;;;;7.28;5.65;;;4.20;99.90;;;;;;5269467;28;20030;-75
2021/12/16 12:35:10;;;;;;;2.45;1.80;;;4.20;99.90;;;;;;5268311;28;20375;-76
2021/12/16 12:37:45;;;;;;;3.67;1.80;;;4.10;99.90;;;;;;5269451;28;20481;-79
2021/12/16 12:40:28;;;;;;;2.67;1.58;;;4.30;99.90;;;;;;5268957;28;20483;-75
2021/12/16 12:42:59;;;;;;;2.45;1.60;;;4.20;99.90;;;;;;5269605;28;20059;-78
2021/12/16 12:45:34;;;;;;;1.45;1.00;;;4.20;99.90;;;;;;5269344;28;20475;-77
2021/12/16 12:48:12;;;;;;;1.67;1.20;;;4.10;99.90;;;;;;5267976;28;20047;-77
2021/12/16 12:50:47;;;;;;;11.07;7.20;;;4.20;99.90;;;;;;5269193;28;20173;-77
2021/12/16 12:53:25;;;;;;;2.20;1.27;;;4.10;99.90;;;;;;5267918;28;20024;-79
2021/12/16 12:56:15;;;;;;;2.90;1.63;;;4.20;99.90;;;;;;5269145;28;20035;-76
2021/12/16 12:58:59;;;;;;;3.00;1.27;;;4.10;99.90;;;;;;5269043;28;20024;-77
2021/12/16 13:01:50;;;;;;;2.05;1.20;;;4.20;99.90;;;;;;5269279;28;20423;-76
2021/12/16 13:04:26;;;;;;;17.13;10.45;;;4.00;99.90;;;;;;5267740;28;20089;-78
2021/12/16 13:07:07;;;;;;;5.60;3.85;;;4.10;99.90;;;;;;5268933;28;20107;-79
2021/12/16 13:09:47;;;;;;;3.35;2.17;;;4.20;99.90;;;;;;5268807;28;20032;-78
2021/12/16 13:12:40;;;;;;;2.75;1.50;;;4.10;99.90;;;;;;5269039;28;20032;-79
2021/12/16 13:15:23;;;;;;;2.05;1.30;;;4.30;99.90;;;;;;5268888;28;20020;-76
2021/12/16 13:27:05;;;;;;;3.03;2.20;;;4.10;99.90;;;;;;5268854;28;20047;-76
2021/12/16 13:29:43;;;;;;;2.38;1.27;;;4.00;99.90;;;;;;5268565;28;20100;-76
2021/12/16 13:32:32;;;;;;;29.02;14.15;;;4.10;99.90;;;;;;5267541;28;20510;-79
2021/12/16 13:35:31;;;;;;;5.30;2.90;;;4.10;99.90;;;;;;5267530;28;20111;-78
2021/12/16 13:38:08;;;;;;;20.33;11.50;;;4.20;99.90;;;;;;5267397;28;20421;-78
2021/12/16 13:40:42;;;;;;;5.68;3.47;;;4.10;99.90;;;;;;5268789;28;20126;-76
2021/12/16 13:43:24;;;;;;;1.90;1.30;;;4.10;99.90;;;;;;5268640;28;20028;-76
2021/12/16 13:49:01;;;;;;;3.80;2.47;;;4.10;99.90;;;;;;5268360;28;20115;-75
2021/12/16 14:03:05;;;;;;;2.92;2.47;;;3.90;99.90;;;;;;5272615;28;20028;-77
2021/12/16 14:05:55;;;;;;;7.63;3.67;;;4.10;99.90;;;;;;5271004;28;20528;-76
2021/12/16 14:08:35;;;;;;;11.40;7.78;;;4.00;99.90;;;;;;5272060;28;20058;-77
2021/12/16 14:14:27;;;;;;;9.98;7.15;;;4.00;99.90;;;;;;5272290;28;20078;-78
2021/12/16 14:17:27;;;;;;;3.75;1.88;;;4.00;99.90;;;;;;5272318;28;20555;-78
2021/12/16 14:23:33;;;;;;;3.92;3.20;;;3.80;99.90;;;;;;5272148;28;20031;-78
2021/12/16 14:33:07;;;;;;;6.13;2.70;;;4.00;99.90;;;;;;5248001;28;20036;-80
2021/12/16 14:35:14;;;;;;;5.15;3.65;;;3.80;99.90;;;;;;5248911;28;20446;-79
2021/12/16 14:38:25;;;;;;;6.18;3.72;;;3.90;99.90;;;;;;5267861;28;20039;-77
2021/12/16 14:41:24;;;;;;;5.78;3.97;;;3.80;99.90;;;;;;5272523;28;20025;-77
2021/12/16 14:46:48;;;;;;;5.47;3.97;;;3.90;99.90;;;;;;5293178;28;20470;-76
2021/12/16 14:49:31;;;;;;;2.67;2.00;;;3.80;99.90;;;;;;5292957;28;20035;-77
2021/12/16 14:52:04;;;;;;;11.82;6.82;;;3.80;99.90;;;;;;5293014;28;20038;-79
2021/12/16 14:54:34;;;;;;;5.55;2.67;;;3.80;99.90;;;;;;5293103;28;20031;-77
2021/12/16 14:57:05;;;;;;;8.68;7.88;;;3.70;99.90;;;;;;5292801;28;20024;-78
2021/12/16 14:59:36;;;;;;;5.22;3.33;;;3.80;99.90;;;;;;5292269;28;20016;-78
2021/12/16 15:02:10;;;;;;;3.92;2.35;;;3.80;99.90;;;;;;5293214;28;20497;-77
2021/12/16 15:04:41;;;;;;;3.47;2.33;;;3.80;99.90;;;;;;5292785;28;20030;-78
2021/12/16 15:07:12;;;;;;;3.55;2.92;;;3.80;99.90;;;;;;5292357;28;20024;-78
2021/12/16 15:09:44;;;;;;;4.75;3.45;;;3.90;99.90;;;;;;5292795;28;20546;-78
2021/12/16 15:12:31;;;;;;;2.90;1.67;;;3.90;99.90;;;;;;5292132;28;20063;-78
2021/12/16 15:42:43;;;;;;;3.90;1.83;;;3.90;99.90;;;;;;5276081;28;20092;-76
2021/12/16 15:43:52;;;;;;;5.82;2.53;;;3.80;99.90;;;;;;5270808;28;20024;-78
2021/12/16 15:46:28;;;;;;;4.55;3.15;;;4.00;99.90;;;;;;5271092;28;20077;-78
2021/12/16 15:49:00;;;;;;;4.63;2.08;;;3.80;99.90;;;;;;5270268;28;20483;-79
2021/12/16 15:51:31;;;;;;;9.50;5.43;;;3.80;99.90;;;;;;5270496;28;20031;-76
2021/12/16 15:54:04;;;;;;;4.07;2.72;;;4.00;99.90;;;;;;5270279;28;20024;-79
2021/12/16 15:56:39;;;;;;;5.63;3.53;;;3.80;99.90;;;;;;5270356;28;20399;-79
2021/12/16 15:59:15;;;;;;;4.57;3.20;;;3.70;99.90;;;;;;5270228;28;20031;-78
2021/12/16 16:01:50;;;;;;;4.70;2.53;;;3.90;99.90;;;;;;5280518;28;20032;-76
2021/12/16 16:04:32;;;;;;;10.85;9.75;;;3.80;99.90;;;;;;5291567;28;20068;-77
2021/12/16 16:07:52;;;;;;;6.38;3.38;;;3.90;99.90;;;;;;5291583;28;20164;-75
2021/12/16 16:10:22;;;;;;;3.17;2.38;;;3.70;99.90;;;;;;5291453;27;20043;-75
2021/12/16 16:12:53;;;;;;;5.45;3.25;;;3.90;99.90;;;;;;5278899;28;20077;-79
2021/12/16 16:15:24;;;;;;;1.88;1.40;;;3.90;99.90;;;;;;5288058;28;20375;-78
2021/12/16 16:20:53;;;;;;;2.47;1.83;;;4.00;99.90;;;;;;5247594;28;20048;-77
2021/12/16 16:23:25;;;;;;;2.22;1.20;;;3.90;99.90;;;;;;5248872;28;20478;-79
2021/12/16 16:25:57;;;;;;;2.28;1.83;;;3.80;99.90;;;;;;5248614;28;20012;-78
2021/12/16 16:28:28;;;;;;;2.67;1.63;;;4.00;99.90;;;;;;5248730;28;20070;-80
2021/12/16 16:31:00;;;;;;;4.43;1.30;;;3.90;99.90;;;;;;5248607;28;20036;-80
2021/12/16 16:33:33;;;;;;;2.03;1.27;;;4.00;99.90;;;;;;5248797;28;20017;-79
2021/12/16 16:36:17;;;;;;;2.20;1.25;;;4.10;99.90;;;;;;5248679;28;20123;-80
2021/12/16 16:38:52;;;;;;;7.22;3.95;;;4.00;99.90;;;;;;5238957;28;20078;-77
2021/12/16 16:41:27;;;;;;;7.88;3.97;;;4.00;99.90;;;;;;5228128;28;20205;-79
2021/12/16 16:44:07;;;;;;;5.32;3.90;;;4.10;99.90;;;;;;5228130;28;20013;-77
2021/12/16 16:46:47;;;;;;;7.15;5.47;;;3.80;99.90;;;;;;5228169;28;20025;-80
2021/12/16 16:49:48;;;;;;;2.72;2.08;;;3.90;99.90;;;;;;5229058;28;20547;-78
2021/12/16 16:52:21;;;;;;;3.58;2.42;;;3.90;99.90;;;;;;5228153;28;20021;-78
2021/12/16 16:55:14;;;;;;;3.20;2.25;;;3.80;99.90;;;;;;5228192;28;20037;-76
2021/12/16 16:57:47;;;;;;;14.48;7.25;;;3.90;99.90;;;;;;5228680;28;20028;-77
2021/12/16 17:00:20;;;;;;;12.40;5.88;;;3.90;99.90;;;;;;5227867;28;20082;-79
2021/12/16 17:02:54;;;;;;;6.35;2.72;;;3.90;99.90;;;;;;5227815;28;20107;-77
2021/12/16 17:05:34;;;;;;;3.10;1.45;;;4.00;99.90;;;;;;5228292;28;20423;-79
2021/12/16 17:08:31;;;;;;;29.17;15.23;;;4.00;99.90;;;;;;5227906;28;20013;-78